createdAt,value
2022-12-25T00:00:39.984Z,100673.94
2022-12-25T00:03:42.767Z,100689.06
2022-12-25T00:06:45.040Z,100693.06
2022-12-25T00:09:47.158Z,100691.19
2022-12-25T00:12:49.701Z,100689.28
2022-12-25T00:15:51.939Z,100691.97
2022-12-25T00:18:54.252Z,100691.97
2022-12-25T00:21:56.385Z,100686.84
2022-12-25T00:24:58.553Z,100701.13
2022-12-25T00:28:00.715Z,100707.34
2022-12-25T00:31:11.376Z,100705.69
2022-12-25T00:34:13.606Z,100709.22
2022-12-25T00:37:15.804Z,100721.28
2022-12-25T00:40:17.982Z,100731.03
2022-12-25T00:43:20.165Z,100729.16
2022-12-25T00:46:22.369Z,100738.84
2022-12-25T00:49:24.712Z,100736.16
2022-12-25T00:52:26.891Z,100733.72
2022-12-25T00:55:30.900Z,100741.81
2022-12-25T00:58:34.178Z,100750.69
2022-12-25T01:01:36.589Z,100736.41
2022-12-25T01:04:38.841Z,100729.16
2022-12-25T01:07:41.071Z,100741.81
2022-12-25T01:10:43.251Z,100731.84
2022-12-25T01:13:45.935Z,100754.19
2022-12-25T01:16:48.189Z,100748.00
2022-12-25T01:19:50.713Z,100755.00
2022-12-25T01:22:53.219Z,100755.00
2022-12-25T01:25:56.115Z,100757.97
2022-12-25T01:28:58.251Z,100768.75
2022-12-25T01:32:00.438Z,100772.47
2022-12-25T01:35:02.762Z,100781.38
2022-12-25T01:38:04.898Z,100767.91
2022-12-25T01:41:07.266Z,100771.44
2022-12-25T01:44:35.296Z,100778.69
2022-12-25T01:47:37.657Z,100788.66
2022-12-25T01:50:42.732Z,100787.84
2022-12-25T01:53:44.917Z,100783.50
2022-12-25T01:56:48.340Z,100769.00
2022-12-25T01:59:50.556Z,100760.09
2022-12-25T02:02:52.827Z,100772.72
2022-12-25T02:05:55.183Z,100782.47
2022-12-25T02:09:00.168Z,100776.25
2022-12-25T02:12:02.422Z,100777.06
2022-12-25T02:15:10.757Z,100769.22
2022-12-25T02:18:21.139Z,100767.34
2022-12-25T02:21:26.388Z,100774.59
2022-12-25T02:24:35.514Z,100774.59
2022-12-25T02:27:37.576Z,100771.91
2022-12-25T02:30:44.676Z,100770.03
2022-12-25T02:34:04.485Z,100773.81
2022-12-25T02:37:13.217Z,100778.38
2022-12-25T02:40:37.327Z,100781.91
2022-12-25T02:43:59.970Z,100787.50
2022-12-25T02:47:21.199Z,100795.59
2022-12-25T02:50:43.748Z,100798.28
2022-12-25T02:54:04.846Z,100785.63
2022-12-25T02:57:27.581Z,100791.84
2022-12-25T03:00:50.383Z,100795.59
2022-12-25T03:04:13.666Z,100800.97
2022-12-25T03:07:19.472Z,100806.34
2022-12-25T03:10:40.452Z,100805.78
2022-12-25T03:13:44.914Z,100819.81
2022-12-25T03:16:53.054Z,100824.44
2022-12-25T03:20:13.590Z,100832.50
2022-12-25T03:23:37.884Z,100831.44
2022-12-25T03:26:55.151Z,100824.44
2022-12-25T03:30:15.584Z,100824.44
2022-12-25T03:34:17.437Z,100828.16
2022-12-25T03:37:46.017Z,100836.25
2022-12-25T03:41:20.983Z,100845.16
2022-12-25T03:44:54.230Z,100845.97
2022-12-25T03:48:15.573Z,100855.09
2022-12-25T03:51:39.556Z,100844.31
2022-12-25T03:55:02.298Z,100845.41
2022-12-25T03:58:23.158Z,100849.72
2022-12-25T04:01:44.069Z,100856.97
2022-12-25T04:05:04.843Z,100856.97
2022-12-25T04:08:25.639Z,100860.75
2022-12-25T04:11:46.008Z,100856.19
2022-12-25T04:15:06.818Z,100841.88
2022-12-25T04:18:27.574Z,100828.41
2022-12-25T04:21:48.007Z,100849.13
2022-12-25T04:25:08.519Z,100851.84
2022-12-25T04:28:29.174Z,100851.84
2022-12-25T04:31:49.583Z,100851.00
2022-12-25T04:35:10.472Z,100856.41
2022-12-25T04:38:12.577Z,100858.28
2022-12-25T04:41:14.816Z,100847.53
2022-12-25T04:44:16.963Z,100836.75
2022-12-25T04:47:19.160Z,100835.59
2022-12-25T04:50:21.310Z,100843.19
2022-12-25T04:53:23.495Z,100843.19
2022-12-25T04:56:25.701Z,100855.59
2022-12-25T04:59:27.881Z,100853.97
2022-12-25T05:02:30.233Z,100864.72
2022-12-25T05:05:32.584Z,100855.03
2022-12-25T05:08:35.698Z,100862.88
2022-12-25T05:11:37.896Z,100858.78
2022-12-25T05:14:40.150Z,100862.03
2022-12-25T05:17:42.305Z,100872.00
2022-12-25T05:20:54.656Z,100879.28
2022-12-25T05:23:56.831Z,100873.88
2022-12-25T05:26:58.971Z,100868.50
2022-12-25T05:30:01.092Z,100862.28
2022-12-25T05:33:03.648Z,100862.28
2022-12-25T05:36:07.511Z,100864.97
2022-12-25T05:39:09.686Z,100872.25
2022-12-25T05:42:11.822Z,100877.63
2022-12-25T05:45:14.013Z,100877.63
2022-12-25T05:48:16.475Z,100882.22
2022-12-25T05:51:19.800Z,100877.63
2022-12-25T05:54:21.882Z,100891.09
2022-12-25T05:57:23.981Z,100891.09
2022-12-25T06:00:26.110Z,100901.06
2022-12-25T06:03:28.363Z,100900.25
2022-12-25T06:06:30.670Z,100901.06
2022-12-25T06:09:32.777Z,100892.16
2022-12-25T06:12:34.903Z,100902.13
2022-12-25T06:15:40.953Z,100900.50
2022-12-25T06:18:46.650Z,100890.53
2022-12-25T06:21:48.917Z,100890.53
2022-12-25T06:24:51.511Z,100898.59
2022-12-25T06:27:53.693Z,100893.22
2022-12-25T06:30:56.520Z,100899.66
2022-12-25T06:33:58.619Z,100900.50
2022-12-25T06:37:00.702Z,100911.28
2022-12-25T06:40:02.887Z,100907.75
2022-12-25T06:43:04.985Z,100912.06
2022-12-25T06:46:09.970Z,100908.56
2022-12-25T06:49:12.355Z,100908.56
2022-12-25T06:52:14.521Z,100922.03
2022-12-25T06:55:16.762Z,100926.59
2022-12-25T06:58:19.056Z,100926.59
2022-12-25T07:01:34.338Z,100932.00
2022-12-25T07:04:40.909Z,100934.69
2022-12-25T07:07:43.089Z,100937.38
2022-12-25T07:10:45.189Z,100954.38
2022-12-25T07:13:47.448Z,100939.25
2022-12-25T07:16:50.177Z,100941.94
2022-12-25T07:19:52.691Z,100965.94
2022-12-25T07:22:54.859Z,100967.00
2022-12-25T07:25:58.768Z,100981.31
2022-12-25T07:29:01.009Z,100996.63
2022-12-25T07:32:03.407Z,101000.16
2022-12-25T07:35:05.926Z,100992.09
2022-12-25T07:38:08.132Z,101000.16
2022-12-25T07:41:11.755Z,101002.84
2022-12-25T07:44:13.875Z,100998.25
2022-12-25T07:47:16.506Z,100998.25
2022-12-25T07:50:18.629Z,101005.56
2022-12-25T07:53:20.739Z,101009.03
2022-12-25T07:56:23.221Z,101017.13
2022-12-25T07:59:25.497Z,101009.88
2022-12-25T08:02:29.078Z,101019.00
2022-12-25T08:05:33.001Z,101014.41
2022-12-25T08:08:36.212Z,101024.16
2022-12-25T08:11:38.997Z,101025.19
2022-12-25T08:14:41.181Z,101026.84
2022-12-25T08:17:43.359Z,101028.72
2022-12-25T08:20:45.438Z,101023.31
2022-12-25T08:23:48.312Z,101028.47
2022-12-25T08:26:52.870Z,101032.25
2022-12-25T08:29:55.045Z,101038.44
2022-12-25T08:32:57.245Z,101040.78
2022-12-25T08:36:04.980Z,101043.84
2022-12-25T08:39:10.374Z,101037.63
2022-12-25T08:42:12.565Z,101044.06
2022-12-25T08:45:14.728Z,101040.31
2022-12-25T08:48:16.904Z,101048.41
2022-12-25T08:51:21.171Z,101043.00
2022-12-25T08:54:24.725Z,101044.88
2022-12-25T08:57:26.868Z,101043.00
2022-12-25T09:00:29.306Z,101043.00
2022-12-25T09:03:34.977Z,101049.22
2022-12-25T09:06:37.207Z,101043.84
2022-12-25T09:09:39.748Z,101042.75
2022-12-25T09:12:41.876Z,101046.53
2022-12-25T09:15:44.162Z,101050.03
2022-12-25T09:18:46.616Z,101050.84
2022-12-25T09:21:48.844Z,101054.38
2022-12-25T09:24:51.011Z,101052.50
2022-12-25T09:27:53.157Z,101044.41
2022-12-25T09:30:55.686Z,101046.88
2022-12-25T09:33:58.221Z,101055.75
2022-12-25T09:37:02.345Z,101056.56
2022-12-25T09:40:05.026Z,101039.56
2022-12-25T09:43:11.014Z,101046.63
2022-12-25T09:46:20.531Z,101050.94
2022-12-25T09:49:39.290Z,101056.31
2022-12-25T09:52:46.455Z,101051.75
2022-12-25T09:55:57.022Z,101051.75
2022-12-25T09:58:59.338Z,101050.72
2022-12-25T10:02:21.981Z,101052.59
2022-12-25T10:05:43.114Z,101054.22
2022-12-25T10:08:56.522Z,101052.34
2022-12-25T10:12:27.054Z,101050.72
2022-12-25T10:15:45.847Z,101039.38
2022-12-25T10:18:57.361Z,101049.41
2022-12-25T10:22:02.914Z,101045.09
2022-12-25T10:25:07.116Z,101046.69
2022-12-25T10:28:15.383Z,101051.31
2022-12-25T10:31:26.487Z,101042.13
2022-12-25T10:34:28.879Z,101038.41
2022-12-25T10:37:31.055Z,101033.00
2022-12-25T10:40:39.173Z,101033.81
2022-12-25T10:43:49.272Z,101034.63
2022-12-25T10:46:54.643Z,101029.25
2022-12-25T10:49:57.246Z,101032.78
2022-12-25T10:53:05.163Z,101029.00
2022-12-25T10:56:07.902Z,101025.25
2022-12-25T10:59:11.058Z,101020.44
2022-12-25T11:02:35.088Z,101027.22
2022-12-25T11:05:37.477Z,101018.09
2022-12-25T11:08:39.692Z,101009.75
2022-12-25T11:11:41.926Z,101009.28
2022-12-25T11:14:53.228Z,101003.41
2022-12-25T11:17:55.473Z,101006.44
2022-12-25T11:21:00.051Z,100998.66
2022-12-25T11:24:07.477Z,100993.59
2022-12-25T11:27:27.606Z,101003.41
2022-12-25T11:30:31.416Z,100993.19
2022-12-25T11:33:37.638Z,100990.88
2022-12-25T11:36:50.828Z,100982.03
2022-12-25T11:39:55.704Z,100983.16
2022-12-25T11:43:08.173Z,100979.75
2022-12-25T11:46:16.402Z,100985.47
2022-12-25T11:49:19.820Z,100977.69
2022-12-25T11:52:22.878Z,100986.94
2022-12-25T11:55:37.123Z,100990.53
2022-12-25T11:58:44.235Z,100988.16
2022-12-25T12:01:55.050Z,100987.44
2022-12-25T12:05:24.081Z,100988.56
2022-12-25T12:08:26.312Z,100979.50
2022-12-25T12:11:33.684Z,100982.75
2022-12-25T12:14:45.918Z,100977.69
2022-12-25T12:17:48.084Z,100973.34
2022-12-25T12:21:04.878Z,100980.69
2022-12-25T12:24:18.589Z,100982.88
2022-12-25T12:27:36.246Z,100985.09
2022-12-25T12:30:38.468Z,100992.94
2022-12-25T12:33:49.511Z,100985.72
2022-12-25T12:36:58.503Z,100984.44
2022-12-25T12:40:01.405Z,100980.66
2022-12-25T12:43:04.684Z,100981.16
2022-12-25T12:46:30.079Z,100993.19
2022-12-25T12:49:33.635Z,100985.53
2022-12-25T12:52:37.574Z,100992.47
2022-12-25T12:55:39.730Z,100991.34
2022-12-25T12:58:52.236Z,101000.19
2022-12-25T13:02:26.775Z,100995.53
2022-12-25T13:05:34.157Z,101004.13
2022-12-25T13:09:09.225Z,100999.22
2022-12-25T13:12:12.578Z,101003.44
2022-12-25T13:15:15.006Z,100999.31
2022-12-25T13:18:17.625Z,101002.53
2022-12-25T13:21:23.215Z,101004.91
2022-12-25T13:24:27.668Z,101006.22
2022-12-25T13:27:32.519Z,100992.72
2022-12-25T13:30:34.661Z,101001.63
2022-12-25T13:33:37.632Z,101000.50
2022-12-25T13:36:40.268Z,100999.34
2022-12-25T13:40:04.022Z,101004.72
2022-12-25T13:43:06.614Z,100997.16
2022-12-25T13:46:12.848Z,101000.91
2022-12-25T13:49:17.608Z,100998.44
2022-12-25T13:52:31.813Z,101001.16
2022-12-25T13:55:33.935Z,101012.97
2022-12-25T13:58:37.173Z,101013.22
2022-12-25T14:01:43.134Z,101008.09
2022-12-25T14:04:45.768Z,101012.91
2022-12-25T14:07:53.157Z,101009.38
2022-12-25T14:10:55.833Z,101011.28
2022-12-25T14:14:21.776Z,101000.72
2022-12-25T14:17:24.580Z,101006.94
2022-12-25T14:20:32.622Z,101007.19
2022-12-25T14:23:43.147Z,101009.88
2022-12-25T14:26:45.402Z,101010.13
2022-12-25T14:29:49.063Z,101013.88
2022-12-25T14:32:53.854Z,101023.81
2022-12-25T14:35:56.566Z,101033.81
2022-12-25T14:39:03.920Z,101025.94
2022-12-25T14:42:41.935Z,101024.31
2022-12-25T14:45:54.431Z,101029.72
2022-12-25T14:49:04.437Z,101021.06
2022-12-25T14:52:21.457Z,101027.50
2022-12-25T14:55:27.203Z,101031.00
2022-12-25T14:58:31.225Z,101029.38
2022-12-25T15:01:41.062Z,101042.03
2022-12-25T15:04:44.097Z,101046.59
2022-12-25T15:07:46.346Z,101033.38
2022-12-25T15:11:04.715Z,101034.44
2022-12-25T15:14:07.026Z,101034.44
2022-12-25T15:17:26.282Z,101039.84
2022-12-25T15:20:32.009Z,101043.56
2022-12-25T15:23:34.133Z,101044.41
2022-12-25T15:26:36.317Z,101038.44
2022-12-25T15:30:08.568Z,101035.75
2022-12-25T15:33:00.561Z,101036.78
2022-12-25T15:36:02.750Z,101035.16
2022-12-25T15:39:04.896Z,101031.63
2022-12-25T15:42:19.555Z,101036.25
2022-12-25T15:45:24.498Z,101047.03
2022-12-25T15:48:26.634Z,101047.22
2022-12-25T15:51:28.927Z,101043.75
2022-12-25T15:54:32.319Z,101041.84
2022-12-25T15:57:35.124Z,101035.66
2022-12-25T16:00:37.334Z,101038.34
2022-12-25T16:03:39.520Z,101046.66
2022-12-25T16:06:41.826Z,101039.41
2022-12-25T16:09:44.322Z,101046.66
2022-12-25T16:12:46.853Z,101051.25
2022-12-25T16:15:51.392Z,101041.25
2022-12-25T16:18:53.569Z,101036.13
2022-12-25T16:21:55.928Z,101036.13
2022-12-25T16:24:58.085Z,101032.59
2022-12-25T16:28:03.041Z,101033.69
2022-12-25T16:31:05.424Z,101030.97
2022-12-25T16:34:08.161Z,101032.84
2022-12-25T16:37:10.438Z,101022.31
2022-12-25T16:40:12.754Z,101019.38
2022-12-25T16:43:20.296Z,101013.16
2022-12-25T16:46:25.950Z,101017.75
2022-12-25T16:49:28.155Z,101013.41
2022-12-25T16:52:34.722Z,101012.38
2022-12-25T16:55:39.986Z,101012.84
2022-12-25T16:58:46.701Z,101018.81
2022-12-25T17:01:49.024Z,101016.94
2022-12-25T17:04:51.206Z,101007.19
2022-12-25T17:07:53.349Z,101003.72
2022-12-25T17:10:55.922Z,101015.28
2022-12-25T17:14:03.635Z,101009.88
2022-12-25T17:17:05.860Z,101010.97
2022-12-25T17:20:08.444Z,101010.97
2022-12-25T17:23:10.607Z,101017.44
2022-12-25T17:26:12.766Z,101012.03
2022-12-25T17:29:20.101Z,101014.72
2022-12-25T17:32:24.359Z,101011.22
2022-12-25T17:35:26.517Z,101006.66
2022-12-25T17:38:30.589Z,101005.81
2022-12-25T17:41:33.011Z,100983.94
2022-12-25T17:44:35.181Z,100978.06
2022-12-25T17:47:37.326Z,100969.97
2022-12-25T17:50:41.596Z,100973.97
2022-12-25T17:53:46.511Z,100978.06
2022-12-25T17:56:49.438Z,100989.91
2022-12-25T17:59:51.676Z,100989.09
2022-12-25T18:02:56.638Z,100987.44
2022-12-25T18:06:06.233Z,100983.69
2022-12-25T18:09:09.727Z,100989.34
2022-12-25T18:12:11.919Z,100990.13
2022-12-25T18:15:14.072Z,100989.09
2022-12-25T18:18:16.195Z,100985.56
2022-12-25T18:21:18.383Z,100993.66
2022-12-25T18:24:20.494Z,100992.03
2022-12-25T18:27:22.829Z,100982.28
2022-12-25T18:30:25.037Z,100982.28
2022-12-25T18:33:27.589Z,100987.69
2022-12-25T18:36:30.362Z,100973.38
2022-12-25T18:39:33.365Z,100981.47
2022-12-25T18:42:41.394Z,100970.94
2022-12-25T18:45:44.061Z,100977.16
2022-12-25T18:48:46.269Z,100968.25
2022-12-25T18:51:48.886Z,100973.63
2022-12-25T18:54:51.078Z,100982.53
2022-12-25T18:57:53.396Z,100979.03
2022-12-25T19:00:55.825Z,100977.16
2022-12-25T19:04:04.458Z,100969.31
2022-12-25T19:07:07.575Z,100958.53
2022-12-25T19:10:10.449Z,100965.81
2022-12-25T19:13:12.651Z,100962.28
2022-12-25T19:16:15.232Z,100955.84
2022-12-25T19:19:17.797Z,100950.69
2022-12-25T19:22:20.011Z,100953.16
2022-12-25T19:25:22.125Z,100946.94
2022-12-25T19:28:25.134Z,100958.53
2022-12-25T19:31:30.034Z,100953.38
2022-12-25T19:34:32.196Z,100951.50
2022-12-25T19:37:34.323Z,100947.19
2022-12-25T19:40:40.339Z,100951.50
2022-12-25T19:43:44.048Z,100966.03
2022-12-25T19:46:46.251Z,100968.75
2022-12-25T19:49:52.880Z,100967.09
2022-12-25T19:52:55.596Z,100956.31
2022-12-25T19:56:01.524Z,100950.94
2022-12-25T19:59:03.725Z,100949.06
2022-12-25T20:02:06.091Z,100940.41
2022-12-25T20:05:08.348Z,100932.06
2022-12-25T20:08:10.600Z,100913.22
2022-12-25T20:11:12.909Z,100903.25
2022-12-25T20:14:16.631Z,100896.25
2022-12-25T20:17:18.859Z,100886.28
2022-12-25T20:20:21.109Z,100886.28
2022-12-25T20:23:23.289Z,100897.31
2022-12-25T20:26:28.915Z,100906.22
2022-12-25T20:29:31.078Z,100917.81
2022-12-25T20:32:33.235Z,100920.50
2022-12-25T20:35:35.590Z,100918.59
2022-12-25T20:38:37.749Z,100912.44
2022-12-25T20:41:40.524Z,100904.56
2022-12-25T20:44:43.141Z,100908.91
2022-12-25T20:47:45.312Z,100922.38
2022-12-25T20:50:47.514Z,100925.88
2022-12-25T20:53:50.084Z,100920.72
2022-12-25T20:56:52.223Z,100918.03
2022-12-25T20:59:54.512Z,100908.91
2022-12-25T21:02:56.689Z,100905.38
2022-12-25T21:05:59.705Z,100918.03
2022-12-25T21:09:02.262Z,100915.34
2022-12-25T21:12:04.631Z,100915.34
2022-12-25T21:15:13.346Z,100909.16
2022-12-25T21:18:19.175Z,100902.38
2022-12-25T21:21:22.070Z,100898.38
2022-12-25T21:24:24.319Z,100896.47
2022-12-25T21:27:26.459Z,100912.66
2022-12-25T21:30:28.610Z,100916.41
2022-12-25T21:33:49.425Z,100905.63
2022-12-25T21:36:51.757Z,100895.09
2022-12-25T21:39:53.914Z,100895.91
2022-12-25T21:42:56.180Z,100887.03
2022-12-25T21:46:05.381Z,100896.72
2022-12-25T21:49:07.606Z,100895.91
2022-12-25T21:52:09.793Z,100893.22
2022-12-25T21:55:11.967Z,100895.91
2022-12-25T21:58:14.099Z,100888.91
2022-12-25T22:01:16.799Z,100896.72
2022-12-25T22:04:21.598Z,100906.69
2022-12-25T22:07:23.798Z,100920.97
2022-12-25T22:10:26.061Z,100915.59
2022-12-25T22:13:47.073Z,100915.00
2022-12-25T22:17:07.524Z,100915.00
2022-12-25T22:20:12.699Z,100910.44
2022-12-25T22:23:16.177Z,100904.25
2022-12-25T22:26:21.059Z,100901.53
2022-12-25T22:29:23.403Z,100905.31
2022-12-25T22:32:25.885Z,100899.66
2022-12-25T22:35:28.047Z,100890.78
2022-12-25T22:38:30.543Z,100901.53
2022-12-25T22:41:33.776Z,100908.00
2022-12-25T22:44:36.395Z,100909.63
2022-12-25T22:47:38.667Z,100900.72
2022-12-25T22:50:40.851Z,100902.63
2022-12-25T22:53:42.973Z,100905.31
2022-12-25T22:56:47.843Z,100908.78
2022-12-25T22:59:51.969Z,100902.84
2022-12-25T23:02:54.294Z,100885.88
2022-12-25T23:05:56.984Z,100890.19
2022-12-25T23:08:59.734Z,100887.50
2022-12-25T23:12:01.900Z,100894.75
2022-12-25T23:15:05.870Z,100894.75
2022-12-25T23:18:27.865Z,100894.75
2022-12-25T23:21:49.076Z,100899.34
2022-12-25T23:25:09.711Z,100888.56
2022-12-25T23:28:11.951Z,100876.72
2022-12-25T23:31:14.399Z,100881.53
2022-12-25T23:34:16.580Z,100892.06
2022-12-25T23:37:19.196Z,100876.97
2022-12-25T23:40:21.426Z,100872.41
2022-12-25T23:43:23.619Z,100865.38
2022-12-25T23:46:25.844Z,100865.38
2022-12-25T23:49:28.377Z,100868.06
2022-12-25T23:52:30.454Z,100871.00
2022-12-25T23:55:33.517Z,100868.31
2022-12-25T23:58:35.757Z,100869.16
